sensor_id;sensor_type;location;lat;lon;timestamp;P1;durP1;ratioP1;P2;durP2;ratioP2
26319;SDS011;14024;52.226;5.200;2023-04-03T00:00:23;3.80;;;2.22;;
26319;SDS011;14024;52.226;5.200;2023-04-03T00:02:49;4.07;;;2.70;;
26319;SDS011;14024;52.226;5.200;2023-04-03T00:05:15;4.93;;;2.00;;
26319;SDS011;14024;52.226;5.200;2023-04-03T00:07:41;7.70;;;2.05;;
26319;SDS011;14024;52.226;5.200;2023-04-03T00:10:07;4.97;;;2.20;;
26319;SDS011;14024;52.226;5.200;2023-04-03T00:12:33;4.07;;;2.00;;
26319;SDS011;14024;52.226;5.200;2023-04-03T00:14:59;7.18;;;2.00;;
26319;SDS011;14024;52.226;5.200;2023-04-03T00:17:25;5.18;;;2.10;;
26319;SDS011;14024;52.226;5.200;2023-04-03T00:19:51;5.50;;;2.38;;
26319;SDS011;14024;52.226;5.200;2023-04-03T00:22:17;3.53;;;2.00;;
26319;SDS011;14024;52.226;5.200;2023-04-03T00:24:43;5.43;;;2.05;;
26319;SDS011;14024;52.226;5.200;2023-04-03T00:27:09;3.00;;;2.03;;
26319;SDS011;14024;52.226;5.200;2023-04-03T00:29:36;5.15;;;2.25;;
26319;SDS011;14024;52.226;5.200;2023-04-03T00:32:02;3.35;;;2.10;;
26319;SDS011;14024;52.226;5.200;2023-04-03T00:34:28;4.68;;;2.00;;
26319;SDS011;14024;52.226;5.200;2023-04-03T00:36:54;3.05;;;2.05;;
26319;SDS011;14024;52.226;5.200;2023-04-03T00:39:20;4.88;;;2.45;;
26319;SDS011;14024;52.226;5.200;2023-04-03T00:41:47;2.90;;;1.60;;
26319;SDS011;14024;52.226;5.200;2023-04-03T00:45:21;4.72;;;2.20;;
26319;SDS011;14024;52.226;5.200;2023-04-03T00:47:05;4.38;;;2.30;;
26319;SDS011;14024;52.226;5.200;2023-04-03T00:49:32;5.97;;;2.00;;
26319;SDS011;14024;52.226;5.200;2023-04-03T00:51:58;4.10;;;2.25;;
26319;SDS011;14024;52.226;5.200;2023-04-03T00:54:24;5.28;;;2.25;;
26319;SDS011;14024;52.226;5.200;2023-04-03T00:56:51;7.47;;;2.00;;
26319;SDS011;14024;52.226;5.200;2023-04-03T00:59:19;4.13;;;1.98;;
26319;SDS011;14024;52.226;5.200;2023-04-03T01:01:50;4.20;;;2.00;;
26319;SDS011;14024;52.226;5.200;2023-04-03T01:04:26;5.00;;;2.30;;
26319;SDS011;14024;52.226;5.200;2023-04-03T01:06:53;5.68;;;2.35;;
26319;SDS011;14024;52.226;5.200;2023-04-03T01:09:20;6.78;;;2.20;;
26319;SDS011;14024;52.226;5.200;2023-04-03T01:11:46;4.65;;;2.10;;
26319;SDS011;14024;52.226;5.200;2023-04-03T01:14:12;7.30;;;2.13;;
26319;SDS011;14024;52.226;5.200;2023-04-03T01:16:37;7.03;;;2.40;;
26319;SDS011;14024;52.226;5.200;2023-04-03T01:19:05;6.45;;;2.22;;
26319;SDS011;14024;52.226;5.200;2023-04-03T01:24:15;5.55;;;2.67;;
26319;SDS011;14024;52.226;5.200;2023-04-03T01:26:44;5.72;;;2.92;;
26319;SDS011;14024;52.226;5.200;2023-04-03T01:29:10;8.50;;;2.50;;
26319;SDS011;14024;52.226;5.200;2023-04-03T01:32:10;4.97;;;2.30;;
26319;SDS011;14024;52.226;5.200;2023-04-03T01:34:29;4.45;;;2.10;;
26319;SDS011;14024;52.226;5.200;2023-04-03T01:36:55;4.60;;;2.25;;
26319;SDS011;14024;52.226;5.200;2023-04-03T01:39:21;10.02;;;2.35;;
26319;SDS011;14024;52.226;5.200;2023-04-03T01:41:47;5.43;;;2.13;;
26319;SDS011;14024;52.226;5.200;2023-04-03T01:44:14;9.13;;;3.10;;
26319;SDS011;14024;52.226;5.200;2023-04-03T01:46:40;5.60;;;2.47;;
26319;SDS011;14024;52.226;5.200;2023-04-03T01:49:07;9.07;;;2.70;;
26319;SDS011;14024;52.226;5.200;2023-04-03T01:51:33;6.30;;;2.42;;
26319;SDS011;14024;52.226;5.200;2023-04-03T01:53:59;4.47;;;2.63;;
26319;SDS011;14024;52.226;5.200;2023-04-03T01:56:25;5.15;;;2.67;;
26319;SDS011;14024;52.226;5.200;2023-04-03T01:58:51;4.72;;;2.38;;
26319;SDS011;14024;52.226;5.200;2023-04-03T02:01:17;11.85;;;2.60;;
26319;SDS011;14024;52.226;5.200;2023-04-03T02:03:43;9.20;;;2.58;;
26319;SDS011;14024;52.226;5.200;2023-04-03T02:06:09;6.88;;;3.00;;
26319;SDS011;14024;52.226;5.200;2023-04-03T02:08:35;4.22;;;2.50;;
26319;SDS011;14024;52.226;5.200;2023-04-03T02:11:01;6.65;;;2.70;;
26319;SDS011;14024;52.226;5.200;2023-04-03T02:13:27;6.88;;;2.58;;
26319;SDS011;14024;52.226;5.200;2023-04-03T02:15:53;7.18;;;3.65;;
26319;SDS011;14024;52.226;5.200;2023-04-03T02:18:19;5.28;;;2.72;;
26319;SDS011;14024;52.226;5.200;2023-04-03T02:20:46;5.32;;;2.78;;
26319;SDS011;14024;52.226;5.200;2023-04-03T02:23:12;7.93;;;2.60;;
26319;SDS011;14024;52.226;5.200;2023-04-03T02:25:38;10.38;;;2.90;;
26319;SDS011;14024;52.226;5.200;2023-04-03T02:28:05;5.30;;;2.70;;
26319;SDS011;14024;52.226;5.200;2023-04-03T02:30:31;5.45;;;2.80;;
26319;SDS011;14024;52.226;5.200;2023-04-03T02:32:56;8.05;;;3.20;;
26319;SDS011;14024;52.226;5.200;2023-04-03T02:35:22;8.13;;;2.70;;
26319;SDS011;14024;52.226;5.200;2023-04-03T02:37:48;7.30;;;2.90;;
26319;SDS011;14024;52.226;5.200;2023-04-03T02:40:14;7.38;;;2.80;;
26319;SDS011;14024;52.226;5.200;2023-04-03T02:42:40;7.50;;;2.95;;
26319;SDS011;14024;52.226;5.200;2023-04-03T02:45:06;7.28;;;2.85;;
26319;SDS011;14024;52.226;5.200;2023-04-03T02:47:33;10.85;;;2.85;;
26319;SDS011;14024;52.226;5.200;2023-04-03T02:49:59;6.78;;;2.95;;
26319;SDS011;14024;52.226;5.200;2023-04-03T02:52:25;5.50;;;2.63;;
26319;SDS011;14024;52.226;5.200;2023-04-03T02:54:51;5.80;;;2.83;;
26319;SDS011;14024;52.226;5.200;2023-04-03T02:57:17;8.40;;;3.38;;
26319;SDS011;14024;52.226;5.200;2023-04-03T02:59:44;7.38;;;2.70;;
26319;SDS011;14024;52.226;5.200;2023-04-03T03:02:10;7.47;;;3.03;;
26319;SDS011;14024;52.226;5.200;2023-04-03T03:04:36;6.97;;;3.50;;
26319;SDS011;14024;52.226;5.200;2023-04-03T03:07:03;11.25;;;3.58;;
26319;SDS011;14024;52.226;5.200;2023-04-03T03:09:29;6.25;;;2.97;;
26319;SDS011;14024;52.226;5.200;2023-04-03T03:11:55;7.13;;;2.78;;
26319;SDS011;14024;52.226;5.200;2023-04-03T03:14:21;11.15;;;3.08;;
26319;SDS011;14024;52.226;5.200;2023-04-03T03:16:47;6.25;;;2.70;;
26319;SDS011;14024;52.226;5.200;2023-04-03T03:19:14;5.18;;;2.83;;
26319;SDS011;14024;52.226;5.200;2023-04-03T03:21:40;6.32;;;3.35;;
26319;SDS011;14024;52.226;5.200;2023-04-03T03:24:06;11.32;;;5.10;;
26319;SDS011;14024;52.226;5.200;2023-04-03T03:26:32;9.27;;;3.22;;
26319;SDS011;14024;52.226;5.200;2023-04-03T03:28:58;5.80;;;3.03;;
26319;SDS011;14024;52.226;5.200;2023-04-03T03:31:24;9.55;;;3.25;;
26319;SDS011;14024;52.226;5.200;2023-04-03T03:33:50;6.95;;;3.17;;
26319;SDS011;14024;52.226;5.200;2023-04-03T03:36:16;7.97;;;3.60;;
26319;SDS011;14024;52.226;5.200;2023-04-03T03:38:42;8.35;;;3.10;;
26319;SDS011;14024;52.226;5.200;2023-04-03T03:41:08;7.55;;;3.40;;
26319;SDS011;14024;52.226;5.200;2023-04-03T03:43:34;7.97;;;3.28;;
26319;SDS011;14024;52.226;5.200;2023-04-03T03:46:00;8.32;;;3.40;;
26319;SDS011;14024;52.226;5.200;2023-04-03T03:48:26;5.72;;;3.13;;
26319;SDS011;14024;52.226;5.200;2023-04-03T03:50:52;9.55;;;3.28;;
26319;SDS011;14024;52.226;5.200;2023-04-03T03:53:18;9.20;;;3.45;;
26319;SDS011;14024;52.226;5.200;2023-04-03T03:55:44;6.65;;;2.92;;
26319;SDS011;14024;52.226;5.200;2023-04-03T03:58:10;6.40;;;3.15;;
26319;SDS011;14024;52.226;5.200;2023-04-03T04:00:36;6.97;;;3.13;;
26319;SDS011;14024;52.226;5.200;2023-04-03T04:03:02;7.80;;;3.72;;
26319;SDS011;14024;52.226;5.200;2023-04-03T04:05:28;11.02;;;3.83;;
26319;SDS011;14024;52.226;5.200;2023-04-03T04:07:55;8.35;;;3.80;;
26319;SDS011;14024;52.226;5.200;2023-04-03T04:10:21;6.45;;;4.00;;
26319;SDS011;14024;52.226;5.200;2023-04-03T04:12:47;7.05;;;3.17;;
26319;SDS011;14024;52.226;5.200;2023-04-03T04:15:16;7.80;;;3.42;;
26319;SDS011;14024;52.226;5.200;2023-04-03T04:17:42;5.85;;;3.28;;
26319;SDS011;14024;52.226;5.200;2023-04-03T04:20:08;8.98;;;3.97;;
26319;SDS011;14024;52.226;5.200;2023-04-03T04:22:34;11.30;;;3.22;;
26319;SDS011;14024;52.226;5.200;2023-04-03T04:25:00;10.05;;;3.40;;
26319;SDS011;14024;52.226;5.200;2023-04-03T04:27:26;9.48;;;3.55;;
26319;SDS011;14024;52.226;5.200;2023-04-03T04:29:52;6.85;;;3.45;;
26319;SDS011;14024;52.226;5.200;2023-04-03T04:32:18;8.80;;;3.38;;
26319;SDS011;14024;52.226;5.200;2023-04-03T04:34:44;7.40;;;3.55;;
26319;SDS011;14024;52.226;5.200;2023-04-03T04:37:10;12.80;;;3.42;;
26319;SDS011;14024;52.226;5.200;2023-04-03T04:39:36;7.20;;;3.45;;
26319;SDS011;14024;52.226;5.200;2023-04-03T04:42:02;7.30;;;3.58;;
26319;SDS011;14024;52.226;5.200;2023-04-03T04:44:28;12.07;;;4.07;;
26319;SDS011;14024;52.226;5.200;2023-04-03T04:46:54;11.88;;;3.50;;
26319;SDS011;14024;52.226;5.200;2023-04-03T04:49:20;13.82;;;3.88;;
26319;SDS011;14024;52.226;5.200;2023-04-03T04:51:46;14.02;;;3.70;;
26319;SDS011;14024;52.226;5.200;2023-04-03T04:54:12;10.75;;;4.20;;
26319;SDS011;14024;52.226;5.200;2023-04-03T04:56:38;11.85;;;4.18;;
26319;SDS011;14024;52.226;5.200;2023-04-03T04:59:04;11.07;;;4.05;;
26319;SDS011;14024;52.226;5.200;2023-04-03T05:01:30;11.65;;;4.00;;
26319;SDS011;14024;52.226;5.200;2023-04-03T05:03:56;13.05;;;3.85;;
26319;SDS011;14024;52.226;5.200;2023-04-03T05:06:22;10.05;;;4.13;;
26319;SDS011;14024;52.226;5.200;2023-04-03T05:08:48;14.05;;;5.75;;
26319;SDS011;14024;52.226;5.200;2023-04-03T05:11:14;12.32;;;4.60;;
26319;SDS011;14024;52.226;5.200;2023-04-03T05:13:40;9.23;;;4.18;;
26319;SDS011;14024;52.226;5.200;2023-04-03T05:16:06;7.88;;;3.92;;
26319;SDS011;14024;52.226;5.200;2023-04-03T05:18:32;10.18;;;4.35;;
26319;SDS011;14024;52.226;5.200;2023-04-03T05:20:58;13.77;;;4.13;;
26319;SDS011;14024;52.226;5.200;2023-04-03T05:23:24;7.43;;;3.80;;
26319;SDS011;14024;52.226;5.200;2023-04-03T05:25:51;9.35;;;4.00;;
26319;SDS011;14024;52.226;5.200;2023-04-03T05:28:17;11.48;;;4.30;;
26319;SDS011;14024;52.226;5.200;2023-04-03T05:30:43;12.77;;;4.28;;
26319;SDS011;14024;52.226;5.200;2023-04-03T05:33:09;11.10;;;4.82;;
26319;SDS011;14024;52.226;5.200;2023-04-03T05:35:35;12.00;;;4.50;;
26319;SDS011;14024;52.226;5.200;2023-04-03T05:38:04;13.52;;;5.57;;
26319;SDS011;14024;52.226;5.200;2023-04-03T05:40:30;12.48;;;4.40;;
26319;SDS011;14024;52.226;5.200;2023-04-03T05:42:56;11.20;;;4.47;;
26319;SDS011;14024;52.226;5.200;2023-04-03T05:45:22;8.93;;;3.90;;
26319;SDS011;14024;52.226;5.200;2023-04-03T05:47:48;12.70;;;4.35;;
26319;SDS011;14024;52.226;5.200;2023-04-03T05:50:14;12.27;;;4.63;;
26319;SDS011;14024;52.226;5.200;2023-04-03T05:52:41;13.93;;;5.85;;
26319;SDS011;14024;52.226;5.200;2023-04-03T05:55:08;21.48;;;6.13;;
26319;SDS011;14024;52.226;5.200;2023-04-03T05:57:35;16.30;;;6.93;;
26319;SDS011;14024;52.226;5.200;2023-04-03T06:00:00;25.65;;;7.50;;
26319;SDS011;14024;52.226;5.200;2023-04-03T06:02:27;17.85;;;6.80;;
26319;SDS011;14024;52.226;5.200;2023-04-03T06:04:53;17.20;;;6.07;;
26319;SDS011;14024;52.226;5.200;2023-04-03T06:07:20;13.23;;;4.72;;
26319;SDS011;14024;52.226;5.200;2023-04-03T06:09:47;10.35;;;5.10;;
26319;SDS011;14024;52.226;5.200;2023-04-03T06:12:13;9.85;;;4.18;;
26319;SDS011;14024;52.226;5.200;2023-04-03T06:14:39;14.05;;;5.15;;
26319;SDS011;14024;52.226;5.200;2023-04-03T06:17:06;10.73;;;4.65;;
26319;SDS011;14024;52.226;5.200;2023-04-03T06:19:33;10.27;;;4.22;;
26319;SDS011;14024;52.226;5.200;2023-04-03T06:21:59;10.52;;;4.70;;
26319;SDS011;14024;52.226;5.200;2023-04-03T06:24:25;14.38;;;4.30;;
26319;SDS011;14024;52.226;5.200;2023-04-03T06:26:52;11.45;;;3.58;;
26319;SDS011;14024;52.226;5.200;2023-04-03T06:29:21;11.40;;;4.55;;
26319;SDS011;14024;52.226;5.200;2023-04-03T06:31:47;7.93;;;3.72;;
26319;SDS011;14024;52.226;5.200;2023-04-03T06:34:13;10.02;;;4.30;;
26319;SDS011;14024;52.226;5.200;2023-04-03T06:36:40;11.68;;;3.65;;
26319;SDS011;14024;52.226;5.200;2023-04-03T06:39:07;12.88;;;3.85;;
26319;SDS011;14024;52.226;5.200;2023-04-03T06:41:34;18.52;;;7.80;;
26319;SDS011;14024;52.226;5.200;2023-04-03T06:44:00;11.10;;;4.05;;
26319;SDS011;14024;52.226;5.200;2023-04-03T06:46:27;6.30;;;3.92;;
26319;SDS011;14024;52.226;5.200;2023-04-03T06:48:53;8.98;;;3.75;;
26319;SDS011;14024;52.226;5.200;2023-04-03T06:51:22;17.23;;;4.32;;
26319;SDS011;14024;52.226;5.200;2023-04-03T06:53:48;7.43;;;3.75;;
26319;SDS011;14024;52.226;5.200;2023-04-03T06:56:14;12.80;;;3.58;;
26319;SDS011;14024;52.226;5.200;2023-04-03T06:58:41;8.55;;;4.18;;
26319;SDS011;14024;52.226;5.200;2023-04-03T07:01:08;10.93;;;4.07;;
26319;SDS011;14024;52.226;5.200;2023-04-03T07:03:35;15.23;;;3.75;;
26319;SDS011;14024;52.226;5.200;2023-04-03T07:06:01;12.20;;;4.63;;
26319;SDS011;14024;52.226;5.200;2023-04-03T07:08:27;12.07;;;4.10;;
26319;SDS011;14024;52.226;5.200;2023-04-03T07:10:53;9.75;;;3.20;;
26319;SDS011;14024;52.226;5.200;2023-04-03T07:13:19;9.10;;;3.67;;
26319;SDS011;14024;52.226;5.200;2023-04-03T07:15:45;10.30;;;3.88;;
26319;SDS011;14024;52.226;5.200;2023-04-03T07:18:11;11.00;;;4.30;;
26319;SDS011;14024;52.226;5.200;2023-04-03T07:20:38;11.93;;;4.50;;
26319;SDS011;14024;52.226;5.200;2023-04-03T07:23:04;13.05;;;4.28;;
26319;SDS011;14024;52.226;5.200;2023-04-03T07:25:30;9.82;;;4.25;;
26319;SDS011;14024;52.226;5.200;2023-04-03T07:27:56;11.48;;;4.22;;
26319;SDS011;14024;52.226;5.200;2023-04-03T07:30:22;11.80;;;4.05;;
26319;SDS011;14024;52.226;5.200;2023-04-03T07:32:48;12.48;;;4.03;;
26319;SDS011;14024;52.226;5.200;2023-04-03T07:35:15;12.30;;;4.38;;
26319;SDS011;14024;52.226;5.200;2023-04-03T07:37:42;9.95;;;3.15;;
26319;SDS011;14024;52.226;5.200;2023-04-03T07:40:08;12.50;;;4.25;;
26319;SDS011;14024;52.226;5.200;2023-04-03T07:42:34;7.55;;;3.90;;
26319;SDS011;14024;52.226;5.200;2023-04-03T07:45:02;10.88;;;3.90;;
26319;SDS011;14024;52.226;5.200;2023-04-03T07:47:28;10.18;;;3.92;;
26319;SDS011;14024;52.226;5.200;2023-04-03T07:49:55;8.25;;;3.63;;
26319;SDS011;14024;52.226;5.200;2023-04-03T07:52:22;7.10;;;3.58;;
26319;SDS011;14024;52.226;5.200;2023-04-03T07:54:48;7.45;;;3.25;;
26319;SDS011;14024;52.226;5.200;2023-04-03T07:57:14;8.93;;;3.58;;
26319;SDS011;14024;52.226;5.200;2023-04-03T07:59:40;34.60;;;5.13;;
26319;SDS011;14024;52.226;5.200;2023-04-03T08:02:11;7.30;;;3.28;;
26319;SDS011;14024;52.226;5.200;2023-04-03T08:04:37;6.60;;;3.08;;
26319;SDS011;14024;52.226;5.200;2023-04-03T08:07:03;8.90;;;3.15;;
26319;SDS011;14024;52.226;5.200;2023-04-03T08:09:29;7.03;;;3.35;;
26319;SDS011;14024;52.226;5.200;2023-04-03T08:11:56;6.95;;;3.03;;
26319;SDS011;14024;52.226;5.200;2023-04-03T08:14:22;6.65;;;3.20;;
26319;SDS011;14024;52.226;5.200;2023-04-03T08:16:48;4.90;;;2.50;;
26319;SDS011;14024;52.226;5.200;2023-04-03T08:19:14;4.95;;;2.70;;
26319;SDS011;14024;52.226;5.200;2023-04-03T08:21:42;5.53;;;2.70;;
26319;SDS011;14024;52.226;5.200;2023-04-03T08:24:08;9.77;;;2.80;;
26319;SDS011;14024;52.226;5.200;2023-04-03T08:26:35;5.45;;;2.95;;
26319;SDS011;14024;52.226;5.200;2023-04-03T08:29:01;6.47;;;2.83;;
26319;SDS011;14024;52.226;5.200;2023-04-03T08:31:27;5.28;;;2.90;;
26319;SDS011;14024;52.226;5.200;2023-04-03T08:33:53;10.18;;;4.13;;
26319;SDS011;14024;52.226;5.200;2023-04-03T08:36:23;8.98;;;3.33;;
26319;SDS011;14024;52.226;5.200;2023-04-03T08:38:50;7.95;;;2.70;;
26319;SDS011;14024;52.226;5.200;2023-04-03T08:41:20;5.05;;;2.20;;
26319;SDS011;14024;52.226;5.200;2023-04-03T08:46:22;7.97;;;2.65;;
26319;SDS011;14024;52.226;5.200;2023-04-03T08:48:50;4.47;;;2.17;;
26319;SDS011;14024;52.226;5.200;2023-04-03T08:51:17;8.07;;;2.53;;
26319;SDS011;14024;52.226;5.200;2023-04-03T08:54:19;5.07;;;2.33;;
26319;SDS011;14024;52.226;5.200;2023-04-03T08:56:36;8.30;;;2.78;;
26319;SDS011;14024;52.226;5.200;2023-04-03T08:59:09;8.10;;;2.15;;
26319;SDS011;14024;52.226;5.200;2023-04-03T09:01:38;7.97;;;2.65;;
26319;SDS011;14024;52.226;5.200;2023-04-03T09:04:14;3.78;;;1.80;;
26319;SDS011;14024;52.226;5.200;2023-04-03T09:06:43;6.93;;;1.90;;
26319;SDS011;14024;52.226;5.200;2023-04-03T09:16:55;3.70;;;1.70;;
26319;SDS011;14024;52.226;5.200;2023-04-03T09:21:48;3.25;;;1.52;;
26319;SDS011;14024;52.226;5.200;2023-04-03T09:24:15;4.03;;;1.38;;
26319;SDS011;14024;52.226;5.200;2023-04-03T09:26:43;2.58;;;1.35;;
26319;SDS011;14024;52.226;5.200;2023-04-03T09:29:12;3.42;;;1.70;;
26319;SDS011;14024;52.226;5.200;2023-04-03T09:31:40;4.75;;;1.50;;
26319;SDS011;14024;52.226;5.200;2023-04-03T09:34:27;3.40;;;1.60;;
26319;SDS011;14024;52.226;5.200;2023-04-03T09:36:55;8.85;;;1.60;;
26319;SDS011;14024;52.226;5.200;2023-04-03T09:39:22;6.57;;;1.50;;
26319;SDS011;14024;52.226;5.200;2023-04-03T09:42:02;3.30;;;1.67;;
26319;SDS011;14024;52.226;5.200;2023-04-03T09:44:30;5.28;;;1.77;;
26319;SDS011;14024;52.226;5.200;2023-04-03T09:46:56;2.92;;;1.35;;
26319;SDS011;14024;52.226;5.200;2023-04-03T09:49:22;4.15;;;1.33;;
26319;SDS011;14024;52.226;5.200;2023-04-03T09:51:48;5.05;;;1.77;;
26319;SDS011;14024;52.226;5.200;2023-04-03T09:56:50;1.65;;;1.30;;
26319;SDS011;14024;52.226;5.200;2023-04-03T09:59:16;5.45;;;1.67;;
26319;SDS011;14024;52.226;5.200;2023-04-03T10:01:43;3.22;;;1.55;;
26319;SDS011;14024;52.226;5.200;2023-04-03T10:04:14;2.50;;;1.55;;
26319;SDS011;14024;52.226;5.200;2023-04-03T10:06:41;2.30;;;1.25;;
26319;SDS011;14024;52.226;5.200;2023-04-03T10:09:19;2.28;;;1.35;;
26319;SDS011;14024;52.226;5.200;2023-04-03T10:11:59;3.05;;;1.20;;
26319;SDS011;14024;52.226;5.200;2023-04-03T10:14:53;3.13;;;1.55;;
26319;SDS011;14024;52.226;5.200;2023-04-03T10:17:18;1.75;;;1.38;;
26319;SDS011;14024;52.226;5.200;2023-04-03T10:19:59;3.08;;;1.60;;
26319;SDS011;14024;52.226;5.200;2023-04-03T10:22:46;1.55;;;0.90;;
26319;SDS011;14024;52.226;5.200;2023-04-03T10:28:01;1.40;;;1.00;;
26319;SDS011;14024;52.226;5.200;2023-04-03T10:33:30;1.33;;;1.05;;
26319;SDS011;14024;52.226;5.200;2023-04-03T10:44:15;2.45;;;1.40;;
26319;SDS011;14024;52.226;5.200;2023-04-03T10:46:56;2.05;;;1.25;;
26319;SDS011;14024;52.226;5.200;2023-04-03T10:49:45;2.40;;;1.27;;
26319;SDS011;14024;52.226;5.200;2023-04-03T10:52:24;2.00;;;1.20;;
26319;SDS011;14024;52.226;5.200;2023-04-03T10:57:18;2.53;;;1.30;;
26319;SDS011;14024;52.226;5.200;2023-04-03T10:59:46;2.70;;;1.17;;
26319;SDS011;14024;52.226;5.200;2023-04-03T11:04:44;4.15;;;1.25;;
26319;SDS011;14024;52.226;5.200;2023-04-03T11:09:37;3.53;;;1.00;;
26319;SDS011;14024;52.226;5.200;2023-04-03T11:12:15;2.75;;;1.20;;
26319;SDS011;14024;52.226;5.200;2023-04-03T11:14:42;4.90;;;1.67;;
26319;SDS011;14024;52.226;5.200;2023-04-03T11:19:47;1.67;;;0.98;;
26319;SDS011;14024;52.226;5.200;2023-04-03T11:22:23;4.50;;;1.48;;
26319;SDS011;14024;52.226;5.200;2023-04-03T11:27:43;1.67;;;0.98;;
26319;SDS011;14024;52.226;5.200;2023-04-03T11:30:22;2.33;;;1.52;;
26319;SDS011;14024;52.226;5.200;2023-04-03T11:33:08;4.43;;;1.50;;
26319;SDS011;14024;52.226;5.200;2023-04-03T11:35:37;2.70;;;1.13;;
26319;SDS011;14024;52.226;5.200;2023-04-03T11:38:10;1.25;;;1.00;;
26319;SDS011;14024;52.226;5.200;2023-04-03T11:40:40;5.90;;;1.42;;
26319;SDS011;14024;52.226;5.200;2023-04-03T11:43:07;3.33;;;1.40;;
26319;SDS011;14024;52.226;5.200;2023-04-03T11:50:47;3.88;;;1.40;;
26319;SDS011;14024;52.226;5.200;2023-04-03T11:58:16;4.13;;;1.27;;
26319;SDS011;14024;52.226;5.200;2023-04-03T12:08:30;3.05;;;1.10;;
26319;SDS011;14024;52.226;5.200;2023-04-03T12:13:42;6.03;;;1.42;;
26319;SDS011;14024;52.226;5.200;2023-04-03T12:27:07;2.53;;;1.63;;
26319;SDS011;14024;52.226;5.200;2023-04-03T12:29:34;2.53;;;1.10;;
26319;SDS011;14024;52.226;5.200;2023-04-03T12:37:21;8.40;;;1.52;;
26319;SDS011;14024;52.226;5.200;2023-04-03T12:39:51;2.13;;;1.10;;
26319;SDS011;14024;52.226;5.200;2023-04-03T12:42:39;2.03;;;1.35;;
26319;SDS011;14024;52.226;5.200;2023-04-03T12:45:21;4.25;;;1.60;;
26319;SDS011;14024;52.226;5.200;2023-04-03T12:47:48;5.47;;;1.35;;
26319;SDS011;14024;52.226;5.200;2023-04-03T12:52:44;1.52;;;1.10;;
26319;SDS011;14024;52.226;5.200;2023-04-03T12:55:18;2.40;;;1.45;;
26319;SDS011;14024;52.226;5.200;2023-04-03T13:02:46;6.68;;;1.50;;
26319;SDS011;14024;52.226;5.200;2023-04-03T13:05:14;3.00;;;1.42;;
26319;SDS011;14024;52.226;5.200;2023-04-03T13:07:41;4.60;;;1.63;;
26319;SDS011;14024;52.226;5.200;2023-04-03T13:12:35;2.63;;;1.60;;
26319;SDS011;14024;52.226;5.200;2023-04-03T13:17:40;3.50;;;1.38;;
26319;SDS011;14024;52.226;5.200;2023-04-03T13:20:24;4.53;;;1.38;;
26319;SDS011;14024;52.226;5.200;2023-04-03T13:25:17;2.97;;;1.42;;
26319;SDS011;14024;52.226;5.200;2023-04-03T13:27:43;2.58;;;1.30;;
26319;SDS011;14024;52.226;5.200;2023-04-03T13:30:25;4.82;;;1.40;;
26319;SDS011;14024;52.226;5.200;2023-04-03T13:32:51;6.03;;;1.58;;
26319;SDS011;14024;52.226;5.200;2023-04-03T13:35:24;3.00;;;1.50;;
26319;SDS011;14024;52.226;5.200;2023-04-03T13:37:55;10.73;;;1.95;;
26319;SDS011;14024;52.226;5.200;2023-04-03T13:40:21;4.53;;;1.80;;
26319;SDS011;14024;52.226;5.200;2023-04-03T13:42:48;5.25;;;1.70;;
26319;SDS011;14024;52.226;5.200;2023-04-03T13:45:25;4.28;;;1.70;;
26319;SDS011;14024;52.226;5.200;2023-04-03T13:47:54;4.32;;;1.73;;
26319;SDS011;14024;52.226;5.200;2023-04-03T13:50:32;6.35;;;1.83;;
26319;SDS011;14024;52.226;5.200;2023-04-03T13:53:02;5.22;;;1.30;;
26319;SDS011;14024;52.226;5.200;2023-04-03T13:55:33;5.88;;;1.48;;
26319;SDS011;14024;52.226;5.200;2023-04-03T13:58:16;2.42;;;1.70;;
26319;SDS011;14024;52.226;5.200;2023-04-03T14:00:52;4.00;;;1.60;;
26319;SDS011;14024;52.226;5.200;2023-04-03T14:03:25;3.40;;;1.70;;
26319;SDS011;14024;52.226;5.200;2023-04-03T14:05:52;5.55;;;1.63;;
26319;SDS011;14024;52.226;5.200;2023-04-03T14:08:18;4.47;;;1.60;;
26319;SDS011;14024;52.226;5.200;2023-04-03T14:10:45;2.83;;;1.83;;
26319;SDS011;14024;52.226;5.200;2023-04-03T14:13:16;5.85;;;1.80;;
26319;SDS011;14024;52.226;5.200;2023-04-03T14:15:42;4.57;;;1.58;;
26319;SDS011;14024;52.226;5.200;2023-04-03T14:18:10;5.80;;;1.90;;
26319;SDS011;14024;52.226;5.200;2023-04-03T14:20:37;4.22;;;1.63;;
26319;SDS011;14024;52.226;5.200;2023-04-03T14:23:03;2.75;;;1.40;;
26319;SDS011;14024;52.226;5.200;2023-04-03T14:25:29;2.92;;;1.63;;
26319;SDS011;14024;52.226;5.200;2023-04-03T14:27:55;6.30;;;2.00;;
26319;SDS011;14024;52.226;5.200;2023-04-03T14:30:28;1.77;;;1.48;;
26319;SDS011;14024;52.226;5.200;2023-04-03T14:35:21;2.85;;;1.63;;
26319;SDS011;14024;52.226;5.200;2023-04-03T14:37:47;4.13;;;1.70;;
26319;SDS011;14024;52.226;5.200;2023-04-03T14:40:18;5.68;;;2.58;;
26319;SDS011;14024;52.226;5.200;2023-04-03T14:42:44;9.70;;;3.65;;
26319;SDS011;14024;52.226;5.200;2023-04-03T14:45:12;3.85;;;2.00;;
26319;SDS011;14024;52.226;5.200;2023-04-03T14:47:48;4.72;;;1.80;;
26319;SDS011;14024;52.226;5.200;2023-04-03T14:50:17;4.40;;;2.00;;
26319;SDS011;14024;52.226;5.200;2023-04-03T14:52:46;3.78;;;2.00;;
26319;SDS011;14024;52.226;5.200;2023-04-03T14:55:12;8.02;;;2.20;;
26319;SDS011;14024;52.226;5.200;2023-04-03T14:57:40;2.55;;;1.90;;
26319;SDS011;14024;52.226;5.200;2023-04-03T15:00:07;4.65;;;1.92;;
26319;SDS011;14024;52.226;5.200;2023-04-03T15:02:37;4.57;;;1.90;;
26319;SDS011;14024;52.226;5.200;2023-04-03T15:05:04;4.20;;;1.80;;
26319;SDS011;14024;52.226;5.200;2023-04-03T15:07:38;2.58;;;1.70;;
26319;SDS011;14024;52.226;5.200;2023-04-03T15:12:39;4.70;;;1.70;;
26319;SDS011;14024;52.226;5.200;2023-04-03T15:15:06;8.95;;;2.05;;
26319;SDS011;14024;52.226;5.200;2023-04-03T15:17:32;4.07;;;1.60;;
26319;SDS011;14024;52.226;5.200;2023-04-03T15:19:59;6.72;;;1.92;;
26319;SDS011;14024;52.226;5.200;2023-04-03T15:22:25;4.18;;;2.15;;
26319;SDS011;14024;52.226;5.200;2023-04-03T15:24:51;8.15;;;2.00;;
26319;SDS011;14024;52.226;5.200;2023-04-03T15:27:17;5.03;;;1.70;;
26319;SDS011;14024;52.226;5.200;2023-04-03T15:29:43;3.28;;;1.73;;
26319;SDS011;14024;52.226;5.200;2023-04-03T15:32:10;3.13;;;1.98;;
26319;SDS011;14024;52.226;5.200;2023-04-03T15:34:36;6.22;;;1.80;;
26319;SDS011;14024;52.226;5.200;2023-04-03T15:37:02;4.85;;;2.30;;
26319;SDS011;14024;52.226;5.200;2023-04-03T15:39:28;4.38;;;2.00;;
26319;SDS011;14024;52.226;5.200;2023-04-03T15:41:55;5.60;;;1.92;;
26319;SDS011;14024;52.226;5.200;2023-04-03T15:44:24;7.28;;;2.35;;
26319;SDS011;14024;52.226;5.200;2023-04-03T15:46:50;4.88;;;1.80;;
26319;SDS011;14024;52.226;5.200;2023-04-03T15:49:17;5.28;;;2.00;;
26319;SDS011;14024;52.226;5.200;2023-04-03T15:51:43;5.45;;;2.00;;
26319;SDS011;14024;52.226;5.200;2023-04-03T15:54:09;2.80;;;1.50;;
26319;SDS011;14024;52.226;5.200;2023-04-03T15:56:35;4.00;;;1.70;;
26319;SDS011;14024;52.226;5.200;2023-04-03T15:59:01;4.78;;;2.00;;
26319;SDS011;14024;52.226;5.200;2023-04-03T16:01:28;4.43;;;1.80;;
26319;SDS011;14024;52.226;5.200;2023-04-03T16:03:54;3.47;;;1.70;;
26319;SDS011;14024;52.226;5.200;2023-04-03T16:06:20;8.50;;;1.88;;
26319;SDS011;14024;52.226;5.200;2023-04-03T16:08:46;4.53;;;1.80;;
26319;SDS011;14024;52.226;5.200;2023-04-03T16:11:13;6.13;;;1.95;;
26319;SDS011;14024;52.226;5.200;2023-04-03T16:13:39;5.43;;;1.98;;
26319;SDS011;14024;52.226;5.200;2023-04-03T16:16:06;5.80;;;1.90;;
26319;SDS011;14024;52.226;5.200;2023-04-03T16:18:32;6.30;;;1.77;;
26319;SDS011;14024;52.226;5.200;2023-04-03T16:20:59;3.75;;;1.98;;
26319;SDS011;14024;52.226;5.200;2023-04-03T16:23:25;6.30;;;2.50;;
26319;SDS011;14024;52.226;5.200;2023-04-03T16:25:52;5.30;;;2.60;;
26319;SDS011;14024;52.226;5.200;2023-04-03T16:28:18;4.22;;;1.90;;
26319;SDS011;14024;52.226;5.200;2023-04-03T16:30:44;4.75;;;1.80;;